sensor_id;sensor_type;location;lat;lon;timestamp;pressure;altitude;pressure_sealevel;temperature;humidity
25638;BME280;13496;51.040;13.680;2024-03-17T00:01:57;100450.69;;;19.72;48.84
25638;BME280;13496;51.040;13.680;2024-03-17T00:06:59;100443.78;;;19.71;48.55
25638;BME280;13496;51.040;13.680;2024-03-17T00:12:01;100445.63;;;19.71;48.25
25638;BME280;13496;51.040;13.680;2024-03-17T00:17:03;100434.88;;;19.72;48.52
25638;BME280;13496;51.040;13.680;2024-03-17T00:22:05;100435.91;;;19.71;48.23
25638;BME280;13496;51.040;13.680;2024-03-17T00:27:07;100443.16;;;19.69;48.27
25638;BME280;13496;51.040;13.680;2024-03-17T00:32:09;100441.34;;;19.70;48.26
25638;BME280;13496;51.040;13.680;2024-03-17T00:37:13;100441.34;;;19.70;48.30
25638;BME280;13496;51.040;13.680;2024-03-17T00:42:14;100450.06;;;19.70;48.33
25638;BME280;13496;51.040;13.680;2024-03-17T00:47:16;100452.84;;;19.69;48.41
25638;BME280;13496;51.040;13.680;2024-03-17T00:52:18;100448.78;;;19.66;48.35
25638;BME280;13496;51.040;13.680;2024-03-17T00:57:20;100449.13;;;19.63;48.42
25638;BME280;13496;51.040;13.680;2024-03-17T01:02:22;100444.69;;;19.64;48.40
25638;BME280;13496;51.040;13.680;2024-03-17T01:07:24;100442.25;;;19.62;48.29
25638;BME280;13496;51.040;13.680;2024-03-17T01:12:26;100442.25;;;19.62;48.26
25638;BME280;13496;51.040;13.680;2024-03-17T01:17:28;100453.91;;;19.59;48.32
25638;BME280;13496;51.040;13.680;2024-03-17T01:22:30;100445.00;;;19.61;48.58
25638;BME280;13496;51.040;13.680;2024-03-17T01:27:32;100439.28;;;19.57;48.50
25638;BME280;13496;51.040;13.680;2024-03-17T01:32:34;100435.00;;;19.56;48.12
25638;BME280;13496;51.040;13.680;2024-03-17T01:37:36;100436.84;;;19.55;48.17
25638;BME280;13496;51.040;13.680;2024-03-17T01:42:38;100437.66;;;19.56;48.14
25638;BME280;13496;51.040;13.680;2024-03-17T01:47:40;100439.00;;;19.52;48.26
25638;BME280;13496;51.040;13.680;2024-03-17T01:52:43;100433.75;;;19.52;48.39
25638;BME280;13496;51.040;13.680;2024-03-17T01:57:45;100430.28;;;19.51;48.19
25638;BME280;13496;51.040;13.680;2024-03-17T02:02:47;100440.00;;;19.51;48.22
25638;BME280;13496;51.040;13.680;2024-03-17T02:07:49;100439.34;;;19.49;48.55
25638;BME280;13496;51.040;13.680;2024-03-17T02:12:52;100444.63;;;19.49;48.29
25638;BME280;13496;51.040;13.680;2024-03-17T02:17:54;100444.00;;;19.47;48.18
25638;BME280;13496;51.040;13.680;2024-03-17T02:22:57;100445.31;;;19.43;48.25
25638;BME280;13496;51.040;13.680;2024-03-17T02:27:58;100437.78;;;19.40;48.54
25638;BME280;13496;51.040;13.680;2024-03-17T02:33:00;100432.53;;;19.40;48.51
25638;BME280;13496;51.040;13.680;2024-03-17T02:38:02;100427.44;;;19.38;48.64
25638;BME280;13496;51.040;13.680;2024-03-17T02:43:04;100434.16;;;19.41;48.19
25638;BME280;13496;51.040;13.680;2024-03-17T02:48:06;100432.53;;;19.40;48.54
25638;BME280;13496;51.040;13.680;2024-03-17T02:53:09;100429.91;;;19.40;48.36
25638;BME280;13496;51.040;13.680;2024-03-17T02:58:11;100430.88;;;19.39;48.21
25638;BME280;13496;51.040;13.680;2024-03-17T03:03:13;100432.88;;;19.37;48.41
25638;BME280;13496;51.040;13.680;2024-03-17T03:08:14;100433.88;;;19.36;48.32
25638;BME280;13496;51.040;13.680;2024-03-17T03:13:16;100433.88;;;19.36;48.26
25638;BME280;13496;51.040;13.680;2024-03-17T03:18:18;100433.22;;;19.33;48.08
25638;BME280;13496;51.040;13.680;2024-03-17T03:23:20;100426.69;;;19.29;48.17
25638;BME280;13496;51.040;13.680;2024-03-17T03:28:23;100431.94;;;19.29;48.16
25638;BME280;13496;51.040;13.680;2024-03-17T03:33:25;100426.69;;;19.29;48.37
25638;BME280;13496;51.040;13.680;2024-03-17T03:38:27;100440.00;;;19.28;48.45
25638;BME280;13496;51.040;13.680;2024-03-17T03:43:29;100434.91;;;19.26;48.44
25638;BME280;13496;51.040;13.680;2024-03-17T03:48:32;100439.53;;;19.24;48.45
25638;BME280;13496;51.040;13.680;2024-03-17T03:53:36;100443.97;;;19.24;48.43
25638;BME280;13496;51.040;13.680;2024-03-17T03:58:39;100435.25;;;19.23;48.44
25638;BME280;13496;51.040;13.680;2024-03-17T04:03:42;100440.53;;;19.23;48.59
25638;BME280;13496;51.040;13.680;2024-03-17T04:08:44;100432.00;;;19.21;48.39
25638;BME280;13496;51.040;13.680;2024-03-17T04:13:46;100432.00;;;19.21;48.70
25638;BME280;13496;51.040;13.680;2024-03-17T04:18:48;100435.59;;;19.20;48.19
25638;BME280;13496;51.040;13.680;2024-03-17T04:23:50;100440.88;;;19.20;48.69
25638;BME280;13496;51.040;13.680;2024-03-17T04:28:52;100447.13;;;19.19;48.26
25638;BME280;13496;51.040;13.680;2024-03-17T04:33:54;100450.75;;;19.18;48.64
25638;BME280;13496;51.040;13.680;2024-03-17T04:38:55;100444.50;;;19.19;48.65
25638;BME280;13496;51.040;13.680;2024-03-17T04:43:57;100449.75;;;19.19;48.28
25638;BME280;13496;51.040;13.680;2024-03-17T04:49:00;100453.22;;;19.20;48.31
25638;BME280;13496;51.040;13.680;2024-03-17T04:54:02;100453.41;;;19.18;48.52
25638;BME280;13496;51.040;13.680;2024-03-17T04:59:05;100458.66;;;19.18;48.30
25638;BME280;13496;51.040;13.680;2024-03-17T05:04:07;100456.03;;;19.18;48.45
25638;BME280;13496;51.040;13.680;2024-03-17T05:09:09;100461.28;;;19.18;48.50
25638;BME280;13496;51.040;13.680;2024-03-17T05:14:11;100463.91;;;19.18;48.26
25638;BME280;13496;51.040;13.680;2024-03-17T05:19:13;100467.19;;;19.20;48.46
25638;BME280;13496;51.040;13.680;2024-03-17T05:24:14;100466.34;;;19.20;48.34
25638;BME280;13496;51.040;13.680;2024-03-17T05:29:16;100471.00;;;19.18;48.50
25638;BME280;13496;51.040;13.680;2024-03-17T05:34:18;100480.31;;;19.20;48.30
25638;BME280;13496;51.040;13.680;2024-03-17T05:39:20;100497.13;;;19.19;48.44
25638;BME280;13496;51.040;13.680;2024-03-17T05:44:22;100483.16;;;19.19;48.66
25638;BME280;13496;51.040;13.680;2024-03-17T05:49:23;100491.84;;;19.19;48.54
25638;BME280;13496;51.040;13.680;2024-03-17T05:54:25;100497.47;;;19.16;48.49
25638;BME280;13496;51.040;13.680;2024-03-17T05:59:27;100503.38;;;19.18;48.90
25638;BME280;13496;51.040;13.680;2024-03-17T06:04:29;100505.00;;;19.19;48.54
25638;BME280;13496;51.040;13.680;2024-03-17T06:09:31;100512.09;;;19.19;48.44
25638;BME280;13496;51.040;13.680;2024-03-17T06:14:32;100518.97;;;19.20;48.77
25638;BME280;13496;51.040;13.680;2024-03-17T06:19:35;100521.78;;;19.18;48.48
25638;BME280;13496;51.040;13.680;2024-03-17T06:24:37;100527.69;;;19.20;48.44
25638;BME280;13496;51.040;13.680;2024-03-17T06:29:39;100528.34;;;19.22;48.76
25638;BME280;13496;51.040;13.680;2024-03-17T06:34:41;100524.41;;;19.18;48.56
25638;BME280;13496;51.040;13.680;2024-03-17T06:39:45;100532.13;;;19.20;48.66
25638;BME280;13496;51.040;13.680;2024-03-17T06:44:47;100533.59;;;19.22;48.66
25638;BME280;13496;51.040;13.680;2024-03-17T06:49:49;100532.13;;;19.20;48.72
25638;BME280;13496;51.040;13.680;2024-03-17T06:54:50;100533.41;;;19.24;48.51
25638;BME280;13496;51.040;13.680;2024-03-17T06:59:52;100545.59;;;19.25;48.63
25638;BME280;13496;51.040;13.680;2024-03-17T07:04:54;100542.13;;;19.24;48.49
25638;BME280;13496;51.040;13.680;2024-03-17T07:09:56;100548.88;;;19.27;48.50
25638;BME280;13496;51.040;13.680;2024-03-17T07:14:58;100552.66;;;19.24;48.54
25638;BME280;13496;51.040;13.680;2024-03-17T07:20:01;100556.94;;;19.25;48.35
25638;BME280;13496;51.040;13.680;2024-03-17T07:25:03;100560.22;;;19.27;48.48
25638;BME280;13496;51.040;13.680;2024-03-17T07:30:07;100559.88;;;19.30;48.85
25638;BME280;13496;51.040;13.680;2024-03-17T07:35:10;100572.53;;;19.27;48.50
25638;BME280;13496;51.040;13.680;2024-03-17T07:40:12;100561.88;;;19.28;48.62
25638;BME280;13496;51.040;13.680;2024-03-17T07:45:14;100569.22;;;19.33;48.54
25638;BME280;13496;51.040;13.680;2024-03-17T07:50:15;100576.25;;;19.41;48.53
25638;BME280;13496;51.040;13.680;2024-03-17T07:55:19;100572.47;;;19.43;48.47
25638;BME280;13496;51.040;13.680;2024-03-17T08:00:21;100572.91;;;19.55;48.05
25638;BME280;13496;51.040;13.680;2024-03-17T08:05:23;100573.50;;;19.65;48.21
25638;BME280;13496;51.040;13.680;2024-03-17T08:10:25;100575.81;;;19.60;48.03
25638;BME280;13496;51.040;13.680;2024-03-17T08:15:27;100575.00;;;19.59;48.26
25638;BME280;13496;51.040;13.680;2024-03-17T08:20:29;100576.16;;;19.57;48.54
25638;BME280;13496;51.040;13.680;2024-03-17T08:25:31;100571.69;;;19.57;48.25
25638;BME280;13496;51.040;13.680;2024-03-17T08:30:33;100570.06;;;19.56;48.49
25638;BME280;13496;51.040;13.680;2024-03-17T08:35:35;100569.72;;;19.59;48.54
25638;BME280;13496;51.040;13.680;2024-03-17T08:40:38;100568.72;;;19.61;48.17
25638;BME280;13496;51.040;13.680;2024-03-17T08:45:40;100564.97;;;19.63;48.19
25638;BME280;13496;51.040;13.680;2024-03-17T08:50:50;100573.88;;;19.62;48.50
25638;BME280;13496;51.040;13.680;2024-03-17T08:55:52;100576.78;;;19.67;48.49
25638;BME280;13496;51.040;13.680;2024-03-17T09:00:55;100557.00;;;19.71;48.25
25638;BME280;13496;51.040;13.680;2024-03-17T09:05:58;100564.38;;;19.76;48.37
25638;BME280;13496;51.040;13.680;2024-03-17T09:10:59;100559.22;;;19.82;48.36
25638;BME280;13496;51.040;13.680;2024-03-17T09:16:01;100548.34;;;19.86;48.75
25638;BME280;13496;51.040;13.680;2024-03-17T09:21:05;100539.09;;;19.90;48.80
25638;BME280;13496;51.040;13.680;2024-03-17T09:26:10;100541.03;;;19.96;48.68
25638;BME280;13496;51.040;13.680;2024-03-17T09:31:13;100539.13;;;20.04;48.25
25638;BME280;13496;51.040;13.680;2024-03-17T09:36:15;100530.88;;;20.08;48.80
25638;BME280;13496;51.040;13.680;2024-03-17T09:41:24;100531.22;;;20.04;48.58
25638;BME280;13496;51.040;13.680;2024-03-17T09:46:30;100529.31;;;20.13;48.55
25638;BME280;13496;51.040;13.680;2024-03-17T09:51:33;100526.00;;;20.19;48.68
25638;BME280;13496;51.040;13.680;2024-03-17T09:56:36;100521.19;;;20.23;48.47
25638;BME280;13496;51.040;13.680;2024-03-17T10:01:38;100519.19;;;20.25;48.62
25638;BME280;13496;51.040;13.680;2024-03-17T10:06:45;100521.28;;;20.29;48.72
25638;BME280;13496;51.040;13.680;2024-03-17T10:11:48;100514.66;;;20.34;48.81
25638;BME280;13496;51.040;13.680;2024-03-17T10:16:50;100513.28;;;20.38;48.79
25638;BME280;13496;51.040;13.680;2024-03-17T10:22:00;100516.38;;;20.41;48.59
25638;BME280;13496;51.040;13.680;2024-03-17T10:27:02;100517.56;;;20.39;48.83
25638;BME280;13496;51.040;13.680;2024-03-17T10:32:16;100518.81;;;20.43;48.41
25638;BME280;13496;51.040;13.680;2024-03-17T10:37:20;100525.75;;;20.44;48.35
25638;BME280;13496;51.040;13.680;2024-03-17T10:42:28;100520.47;;;20.44;48.54
25638;BME280;13496;51.040;13.680;2024-03-17T10:47:30;100507.09;;;20.45;48.70
25638;BME280;13496;51.040;13.680;2024-03-17T10:52:33;100509.59;;;20.47;48.60
25638;BME280;13496;51.040;13.680;2024-03-17T11:02:40;100503.78;;;20.51;48.18
25638;BME280;13496;51.040;13.680;2024-03-17T11:07:44;100489.41;;;20.54;48.20
25638;BME280;13496;51.040;13.680;2024-03-17T11:12:59;100490.41;;;20.53;48.18
25638;BME280;13496;51.040;13.680;2024-03-17T11:23:09;100486.84;;;20.61;48.20
25638;BME280;13496;51.040;13.680;2024-03-17T11:33:51;100484.06;;;20.62;48.02
25638;BME280;13496;51.040;13.680;2024-03-17T11:39:01;100476.16;;;20.62;47.87
25638;BME280;13496;51.040;13.680;2024-03-17T11:44:32;100471.69;;;20.63;48.32
25638;BME280;13496;51.040;13.680;2024-03-17T11:49:39;100476.41;;;20.67;48.28
25638;BME280;13496;51.040;13.680;2024-03-17T11:54:45;100475.69;;;20.73;48.04
25638;BME280;13496;51.040;13.680;2024-03-17T11:59:49;100466.31;;;20.71;48.22
25638;BME280;13496;51.040;13.680;2024-03-17T12:05:00;100464.47;;;20.71;48.12
25638;BME280;13496;51.040;13.680;2024-03-17T12:10:02;100456.22;;;20.74;47.94
25638;BME280;13496;51.040;13.680;2024-03-17T12:15:17;100445.41;;;20.69;48.49
25638;BME280;13496;51.040;13.680;2024-03-17T12:20:20;100439.00;;;20.78;48.24
25638;BME280;13496;51.040;13.680;2024-03-17T12:25:22;100446.72;;;20.80;48.17
25638;BME280;13496;51.040;13.680;2024-03-17T12:30:27;100453.00;;;20.79;48.16
25638;BME280;13496;51.040;13.680;2024-03-17T12:35:29;100449.19;;;20.82;47.95
25638;BME280;13496;51.040;13.680;2024-03-17T12:40:34;100435.50;;;20.93;47.87
25638;BME280;13496;51.040;13.680;2024-03-17T12:45:35;100439.53;;;20.89;47.80
25638;BME280;13496;51.040;13.680;2024-03-17T12:50:44;100417.16;;;20.85;47.98
25638;BME280;13496;51.040;13.680;2024-03-17T12:55:53;100425.09;;;20.85;48.25
25638;BME280;13496;51.040;13.680;2024-03-17T13:01:13;100423.94;;;20.94;48.13
25638;BME280;13496;51.040;13.680;2024-03-17T13:06:23;100423.47;;;21.05;47.86
25638;BME280;13496;51.040;13.680;2024-03-17T13:11:28;100414.81;;;21.11;47.67
25638;BME280;13496;51.040;13.680;2024-03-17T13:16:31;100416.63;;;21.11;47.34
25638;BME280;13496;51.040;13.680;2024-03-17T13:21:33;100418.06;;;21.13;47.63
25638;BME280;13496;51.040;13.680;2024-03-17T13:26:35;100400.59;;;21.12;47.29
25638;BME280;13496;51.040;13.680;2024-03-17T13:31:37;100409.53;;;21.11;47.60
25638;BME280;13496;51.040;13.680;2024-03-17T13:36:39;100399.53;;;21.07;47.35
25638;BME280;13496;51.040;13.680;2024-03-17T13:41:41;100392.00;;;21.03;47.58
25638;BME280;13496;51.040;13.680;2024-03-17T13:46:43;100385.91;;;21.03;47.33
25638;BME280;13496;51.040;13.680;2024-03-17T13:51:44;100389.53;;;21.02;47.65
25638;BME280;13496;51.040;13.680;2024-03-17T13:56:47;100380.81;;;21.01;47.37
25638;BME280;13496;51.040;13.680;2024-03-17T14:01:49;100382.00;;;20.99;47.59
25638;BME280;13496;51.040;13.680;2024-03-17T14:06:51;100366.19;;;20.99;47.68
25638;BME280;13496;51.040;13.680;2024-03-17T14:11:53;100368.81;;;20.99;47.15
25638;BME280;13496;51.040;13.680;2024-03-17T14:16:55;100369.00;;;20.97;47.41
25638;BME280;13496;51.040;13.680;2024-03-17T14:21:58;100365.53;;;20.97;47.42
25638;BME280;13496;51.040;13.680;2024-03-17T14:27:00;100366.56;;;20.96;47.71
25638;BME280;13496;51.040;13.680;2024-03-17T14:32:03;100366.56;;;20.96;47.75
25638;BME280;13496;51.040;13.680;2024-03-17T14:37:05;100368.38;;;20.95;47.40
25638;BME280;13496;51.040;13.680;2024-03-17T14:42:06;100359.00;;;20.93;47.76
25638;BME280;13496;51.040;13.680;2024-03-17T14:47:08;100356.38;;;20.93;47.69
25638;BME280;13496;51.040;13.680;2024-03-17T14:52:12;100352.94;;;20.92;47.48
25638;BME280;13496;51.040;13.680;2024-03-17T14:57:14;100355.38;;;20.94;47.40
25638;BME280;13496;51.040;13.680;2024-03-17T15:02:19;100354.34;;;20.95;47.58
25638;BME280;13496;51.040;13.680;2024-03-17T15:07:21;100363.28;;;20.94;47.55
25638;BME280;13496;51.040;13.680;2024-03-17T15:12:25;100352.13;;;20.92;47.64
25638;BME280;13496;51.040;13.680;2024-03-17T15:17:27;100353.09;;;20.91;47.62
25638;BME280;13496;51.040;13.680;2024-03-17T15:22:29;100354.34;;;20.95;47.67
25638;BME280;13496;51.040;13.680;2024-03-17T15:27:31;100344.25;;;20.98;47.57
25638;BME280;13496;51.040;13.680;2024-03-17T15:32:32;100350.72;;;20.96;47.48
25638;BME280;13496;51.040;13.680;2024-03-17T15:37:34;100350.72;;;20.96;47.39
25638;BME280;13496;51.040;13.680;2024-03-17T15:42:36;100353.97;;;20.98;47.56
25638;BME280;13496;51.040;13.680;2024-03-17T15:47:38;100347.06;;;20.97;47.25
25638;BME280;13496;51.040;13.680;2024-03-17T15:52:40;100341.00;;;20.96;47.57
25638;BME280;13496;51.040;13.680;2024-03-17T15:57:43;100341.16;;;20.95;47.55
25638;BME280;13496;51.040;13.680;2024-03-17T16:02:46;100335.72;;;20.96;47.47
25638;BME280;13496;51.040;13.680;2024-03-17T16:07:49;100341.00;;;20.96;47.35
25638;BME280;13496;51.040;13.680;2024-03-17T16:12:51;100345.63;;;20.94;47.30
25638;BME280;13496;51.040;13.680;2024-03-17T16:17:53;100340.53;;;20.93;47.50
25638;BME280;13496;51.040;13.680;2024-03-17T16:22:55;100347.59;;;20.86;47.53
25638;BME280;13496;51.040;13.680;2024-03-17T16:28:00;100335.41;;;20.85;47.52
25638;BME280;13496;51.040;13.680;2024-03-17T16:33:02;100335.78;;;20.82;47.85
25638;BME280;13496;51.040;13.680;2024-03-17T16:38:05;100333.94;;;20.82;47.64
25638;BME280;13496;51.040;13.680;2024-03-17T16:43:08;100333.94;;;20.82;47.69
25638;BME280;13496;51.040;13.680;2024-03-17T16:48:11;100339.66;;;20.86;47.52
25638;BME280;13496;51.040;13.680;2024-03-17T16:53:12;100342.06;;;20.81;47.46
25638;BME280;13496;51.040;13.680;2024-03-17T16:58:15;100352.53;;;20.74;47.79
25638;BME280;13496;51.040;13.680;2024-03-17T17:03:17;100344.19;;;20.70;47.55
25638;BME280;13496;51.040;13.680;2024-03-17T17:08:19;100350.47;;;20.69;47.59
25638;BME280;13496;51.040;13.680;2024-03-17T17:13:20;100348.19;;;20.66;47.63
25638;BME280;13496;51.040;13.680;2024-03-17T17:23:51;100350.19;;;20.64;47.65
25638;BME280;13496;51.040;13.680;2024-03-17T17:29:01;100343.31;;;20.63;47.77
25638;BME280;13496;51.040;13.680;2024-03-17T17:34:03;100341.03;;;20.60;47.98
25638;BME280;13496;51.040;13.680;2024-03-17T17:39:04;100342.03;;;20.59;47.92
25638;BME280;13496;51.040;13.680;2024-03-17T17:44:06;100333.50;;;20.57;47.89
25638;BME280;13496;51.040;13.680;2024-03-17T17:49:09;100338.16;;;20.55;47.80
25638;BME280;13496;51.040;13.680;2024-03-17T17:54:10;100339.78;;;20.56;47.75
25638;BME280;13496;51.040;13.680;2024-03-17T17:59:14;100340.78;;;20.55;47.71
25638;BME280;13496;51.040;13.680;2024-03-17T18:04:16;100333.03;;;20.53;47.82
25638;BME280;13496;51.040;13.680;2024-03-17T18:09:18;100331.22;;;20.54;47.50
25638;BME280;13496;51.040;13.680;2024-03-17T18:14:26;100326.34;;;20.51;47.72
25638;BME280;13496;51.040;13.680;2024-03-17T18:19:28;100331.63;;;20.51;47.74
25638;BME280;13496;51.040;13.680;2024-03-17T18:24:30;100331.78;;;20.49;47.95
25638;BME280;13496;51.040;13.680;2024-03-17T18:29:31;100336.41;;;20.47;47.72
25638;BME280;13496;51.040;13.680;2024-03-17T18:34:33;100338.25;;;20.47;47.95
25638;BME280;13496;51.040;13.680;2024-03-17T18:39:35;100340.03;;;20.46;47.75
25638;BME280;13496;51.040;13.680;2024-03-17T18:44:37;100332.31;;;20.45;47.88
25638;BME280;13496;51.040;13.680;2024-03-17T18:49:41;100337.59;;;20.45;47.74
25638;BME280;13496;51.040;13.680;2024-03-17T18:54:45;100344.03;;;20.42;47.70
25638;BME280;13496;51.040;13.680;2024-03-17T18:59:51;100339.13;;;20.39;48.01
25638;BME280;13496;51.040;13.680;2024-03-17T19:04:53;100331.06;;;20.41;48.04
25638;BME280;13496;51.040;13.680;2024-03-17T19:09:55;100338.97;;;20.41;48.04
25638;BME280;13496;51.040;13.680;2024-03-17T19:14:58;100329.44;;;20.40;47.78
25638;BME280;13496;51.040;13.680;2024-03-17T19:20:00;100326.41;;;20.43;47.69
25638;BME280;13496;51.040;13.680;2024-03-17T19:25:02;100326.59;;;20.41;47.84
25638;BME280;13496;51.040;13.680;2024-03-17T19:30:04;100329.81;;;20.37;47.87
25638;BME280;13496;51.040;13.680;2024-03-17T19:35:07;100333.06;;;20.39;47.62
25638;BME280;13496;51.040;13.680;2024-03-17T19:40:09;100334.06;;;20.38;47.78
25638;BME280;13496;51.040;13.680;2024-03-17T19:45:11;100337.34;;;20.40;47.88
25638;BME280;13496;51.040;13.680;2024-03-17T19:50:13;100335.06;;;20.37;47.58
25638;BME280;13496;51.040;13.680;2024-03-17T19:55:16;100335.44;;;20.34;47.90
25638;BME280;13496;51.040;13.680;2024-03-17T20:00:21;100336.44;;;20.33;47.98
25638;BME280;13496;51.040;13.680;2024-03-17T20:05:23;100343.34;;;20.34;47.71
25638;BME280;13496;51.040;13.680;2024-03-17T20:10:25;100339.44;;;20.29;47.64
25638;BME280;13496;51.040;13.680;2024-03-17T20:15:27;100333.53;;;20.27;47.87
25638;BME280;13496;51.040;13.680;2024-03-17T20:20:29;100344.72;;;20.29;47.94
25638;BME280;13496;51.040;13.680;2024-03-17T20:25:31;100335.00;;;20.30;47.94
25638;BME280;13496;51.040;13.680;2024-03-17T20:30:34;100342.66;;;20.25;47.87
25638;BME280;13496;51.040;13.680;2024-03-17T20:35:37;100340.63;;;20.27;47.75
25638;BME280;13496;51.040;13.680;2024-03-17T20:40:42;100346.72;;;20.27;47.85
25638;BME280;13496;51.040;13.680;2024-03-17T20:45:44;100344.44;;;20.24;47.79
25638;BME280;13496;51.040;13.680;2024-03-17T20:50:46;100338.19;;;20.25;47.77
25638;BME280;13496;51.040;13.680;2024-03-17T20:55:49;100350.09;;;20.21;47.76
25638;BME280;13496;51.040;13.680;2024-03-17T21:00:51;100347.47;;;20.21;48.06
25638;BME280;13496;51.040;13.680;2024-03-17T21:05:53;100343.81;;;20.22;47.93
25638;BME280;13496;51.040;13.680;2024-03-17T21:10:58;100339.72;;;20.20;47.67
25638;BME280;13496;51.040;13.680;2024-03-17T21:16:02;100345.81;;;20.20;47.85
25638;BME280;13496;51.040;13.680;2024-03-17T21:21:04;100346.19;;;20.17;48.03
25638;BME280;13496;51.040;13.680;2024-03-17T21:26:07;100338.28;;;20.17;47.71
25638;BME280;13496;51.040;13.680;2024-03-17T21:31:11;100330.56;;;20.16;47.78
25638;BME280;13496;51.040;13.680;2024-03-17T21:36:12;100336.47;;;20.18;47.94
25638;BME280;13496;51.040;13.680;2024-03-17T21:41:16;100325.94;;;20.18;47.69
25638;BME280;13496;51.040;13.680;2024-03-17T21:46:21;100322.50;;;20.17;47.54
25638;BME280;13496;51.040;13.680;2024-03-17T21:51:24;100321.03;;;20.15;47.73
25638;BME280;13496;51.040;13.680;2024-03-17T21:56:25;100315.94;;;20.13;47.54
25638;BME280;13496;51.040;13.680;2024-03-17T22:01:27;100317.75;;;20.13;47.78
25638;BME280;13496;51.040;13.680;2024-03-17T22:06:29;100304.41;;;20.14;47.70
25638;BME280;13496;51.040;13.680;2024-03-17T22:11:31;100307.66;;;20.16;47.61
25638;BME280;13496;51.040;13.680;2024-03-17T22:16:33;100306.03;;;20.15;47.81
25638;BME280;13496;51.040;13.680;2024-03-17T22:21:35;100296.06;;;20.11;47.84
25638;BME280;13496;51.040;13.680;2024-03-17T22:26:37;100297.69;;;20.12;47.43
25638;BME280;13496;51.040;13.680;2024-03-17T22:31:41;100302.13;;;20.11;47.54
25638;BME280;13496;51.040;13.680;2024-03-17T22:36:43;100301.88;;;20.06;47.66
25638;BME280;13496;51.040;13.680;2024-03-17T22:41:45;100306.75;;;20.09;47.53
25638;BME280;13496;51.040;13.680;2024-03-17T22:46:47;100297.44;;;20.06;47.65
25638;BME280;13496;51.040;13.680;2024-03-17T22:51:49;100296.97;;;20.03;47.69
25638;BME280;13496;51.040;13.680;2024-03-17T22:56:53;100306.31;;;20.05;47.70
25638;BME280;13496;51.040;13.680;2024-03-17T23:01:55;100295.78;;;20.05;47.58
25638;BME280;13496;51.040;13.680;2024-03-17T23:06:57;100297.59;;;20.05;47.44
25638;BME280;13496;51.040;13.680;2024-03-17T23:11:59;100294.34;;;20.03;47.60
25638;BME280;13496;51.040;13.680;2024-03-17T23:17:01;100291.06;;;20.01;47.56
25638;BME280;13496;51.040;13.680;2024-03-17T23:22:03;100308.03;;;19.98;47.66
25638;BME280;13496;51.040;13.680;2024-03-17T23:27:05;100299.31;;;19.98;47.69
25638;BME280;13496;51.040;13.680;2024-03-17T23:32:06;100290.81;;;19.96;47.54
25638;BME280;13496;51.040;13.680;2024-03-17T23:37:08;100290.81;;;19.96;47.60
25638;BME280;13496;51.040;13.680;2024-03-17T23:42:10;100292.78;;;19.94;47.52
25638;BME280;13496;51.040;13.680;2024-03-17T23:47:12;100293.59;;;19.94;47.55
25638;BME280;13496;51.040;13.680;2024-03-17T23:52:14;100285.91;;;19.93;47.62
25638;BME280;13496;51.040;13.680;2024-03-17T23:57:17;100287.88;;;19.91;47.49
